Time;durP1;ratioP1;P1;durP2;ratioP2;P2;SDS_P1;SDS_P2;PMS_P1;PMS_P2;Temp;Humidity;BMP_temperature;BMP_pressure;BME280_temperature;BME280_humidity;BME280_pressure;Samples;Min_cycle;Max_cycle;Signal;HPM_P1;HPM_P2
2023/02/22 00:00:48;;;;;;;74.85;28.23;;;;;;;7.21;100.00;101608.44;5084487;28;20031;-59
2023/02/22 00:03:23;;;;;;;68.25;27.38;;;;;;;7.25;100.00;101610.13;5087591;28;20025;-59
2023/02/22 00:05:52;;;;;;;74.15;28.02;;;;;;;7.15;100.00;101605.84;5086439;28;20028;-59
2023/02/22 00:08:20;;;;;;;67.22;27.45;;;;;;;7.06;100.00;101602.41;5088119;28;20024;-61
2023/02/22 00:10:45;;;;;;;68.22;27.90;;;;;;;7.17;100.00;101599.69;5086069;28;20016;-59
2023/02/22 00:13:12;;;;;;;72.25;28.40;;;;;;;7.16;100.00;101599.72;5085509;28;20062;-59
2023/02/22 00:15:40;;;;;;;67.57;27.77;;;;;;;7.17;100.00;101597.06;5086675;28;20498;-60
2023/02/22 00:18:06;;;;;;;67.43;27.67;;;;;;;7.18;100.00;101605.81;5076444;28;20048;-60
2023/02/22 00:20:31;;;;;;;66.47;26.90;;;;;;;7.17;100.00;101593.59;5066088;28;20029;-60
2023/02/22 00:22:57;;;;;;;72.18;27.95;;;;;;;7.01;100.00;101596.31;5067555;28;20021;-59
2023/02/22 00:25:23;;;;;;;70.20;26.52;;;;;;;7.02;100.00;101595.47;5082885;28;20043;-61
2023/02/22 00:27:53;;;;;;;68.72;27.85;;;;;;;7.02;100.00;101592.84;5087132;28;20153;-60
2023/02/22 00:30:25;;;;;;;63.58;26.25;;;;;;;7.03;100.00;101597.19;5085619;28;20119;-57
2023/02/22 00:32:51;;;;;;;63.22;27.10;;;;;;;6.97;100.00;101588.50;5086730;28;20593;-59
2023/02/22 00:35:19;;;;;;;65.93;28.30;;;;;;;7.07;100.00;101579.69;5086157;28;20036;-56
2023/02/22 00:37:49;;;;;;;62.03;26.38;;;;;;;6.98;100.00;101583.25;5071050;28;20032;-60
2023/02/22 00:40:17;;;;;;;70.82;27.65;;;;;;;6.96;100.00;101587.66;5066273;28;20064;-59
2023/02/22 00:42:44;;;;;;;66.10;28.40;;;;;;;6.97;100.00;101589.38;5065853;28;20115;-56
2023/02/22 00:45:09;;;;;;;64.22;28.23;;;;;;;7.01;100.00;101592.84;5080309;28;20107;-58
2023/02/22 00:47:35;;;;;;;61.75;26.65;;;;;;;6.91;100.00;101598.16;5086661;28;20066;-61
2023/02/22 00:50:00;;;;;;;56.50;26.08;;;;;;;6.91;100.00;101595.53;5086445;28;20036;-57
2023/02/22 00:52:26;;;;;;;62.33;25.80;;;;;;;6.95;100.00;101591.13;5086740;28;20020;-61
2023/02/22 00:54:53;;;;;;;58.10;25.67;;;;;;;6.94;100.00;101581.53;5085598;28;20435;-59
2023/02/22 00:57:19;;;;;;;60.28;27.23;;;;;;;6.87;100.00;101579.84;5086441;28;20016;-59
2023/02/22 00:59:45;;;;;;;57.63;26.13;;;;;;;6.93;100.00;101582.41;5085962;28;20081;-60
2023/02/22 01:02:11;;;;;;;61.13;26.52;;;;;;;6.99;100.00;101574.53;5086206;28;20024;-56
2023/02/22 01:04:36;;;;;;;56.58;25.10;;;;;;;6.97;100.00;101573.66;5075907;28;20025;-59
2023/02/22 01:07:02;;;;;;;61.47;26.88;;;;;;;7.02;100.00;101574.50;5065617;28;20037;-58
2023/02/22 01:09:27;;;;;;;67.35;27.60;;;;;;;6.85;100.00;101573.72;5065601;28;20099;-60
2023/02/22 01:11:56;;;;;;;57.88;25.38;;;;;;;6.81;100.00;101571.13;5066902;28;20032;-58
2023/02/22 01:14:23;;;;;;;51.55;23.52;;;;;;;6.90;100.00;101574.56;5069797;28;20064;-64
2023/02/22 01:16:49;;;;;;;52.17;24.80;;;;;;;6.83;100.00;101565.88;5081594;28;20487;-58
2023/02/22 01:19:15;;;;;;;56.95;26.25;;;;;;;6.74;100.00;101571.19;5088235;28;20031;-57
2023/02/22 01:21:41;;;;;;;58.58;26.60;;;;;;;6.72;100.00;101568.59;5088720;28;20028;-58
2023/02/22 01:24:06;;;;;;;56.03;26.17;;;;;;;6.85;100.00;101566.75;5089480;28;20025;-58
2023/02/22 01:26:32;;;;;;;57.08;26.75;;;;;;;6.80;100.00;101566.78;5089234;28;20024;-61
2023/02/22 01:28:57;;;;;;;55.55;24.90;;;;;;;6.82;100.00;101559.78;5087621;28;20028;-61
2023/02/22 01:31:22;;;;;;;55.10;26.35;;;;;;;6.83;100.00;101563.25;5089418;28;20043;-61
2023/02/22 01:33:49;;;;;;;61.65;26.02;;;;;;;6.83;100.00;101561.50;5089182;28;20051;-58
2023/02/22 01:36:17;;;;;;;56.03;25.17;;;;;;;6.82;100.00;101566.75;5089745;28;20097;-59
2023/02/22 01:38:44;;;;;;;57.20;26.17;;;;;;;6.75;100.00;101558.09;5089437;28;20039;-58
2023/02/22 01:41:10;;;;;;;53.50;25.75;;;;;;;6.63;100.00;101555.53;5087779;28;20103;-59
2023/02/22 01:43:35;;;;;;;59.03;26.55;;;;;;;6.62;100.00;101545.94;5087713;28;20089;-60
2023/02/22 01:46:21;;;;;;;64.50;27.15;;;;;;;6.51;100.00;101549.50;5089033;28;20103;-59
2023/02/22 01:48:51;;;;;;;64.85;28.50;;;;;;;6.59;100.00;101541.56;5089649;28;20055;-59
2023/02/22 01:51:36;;;;;;;61.25;28.25;;;;;;;6.53;100.00;101541.63;5088769;28;20024;-60
2023/02/22 01:54:08;;;;;;;65.90;28.83;;;;;;;6.53;100.00;101542.47;5097966;28;20043;-60
2023/02/22 01:56:35;;;;;;;60.55;28.88;;;;;;;6.41;100.00;101539.94;5065789;28;20096;-60
2023/02/22 01:59:07;;;;;;;63.15;28.67;;;;;;;6.41;100.00;101540.81;5069040;28;20032;-60
2023/02/22 02:01:35;;;;;;;65.05;29.00;;;;;;;6.47;100.00;101542.50;5067452;28;20138;-59
2023/02/22 02:04:05;;;;;;;67.80;29.50;;;;;;;6.40;100.00;101536.44;5069279;28;20354;-60
2023/02/22 02:06:32;;;;;;;68.60;29.92;;;;;;;6.43;100.00;101527.69;5087265;28;20024;-58
2023/02/22 02:08:59;;;;;;;65.18;29.15;;;;;;;6.48;100.00;101525.06;5086809;28;20055;-58
2023/02/22 02:11:25;;;;;;;64.05;29.52;;;;;;;6.50;100.00;101524.16;5086363;28;20038;-59
2023/02/22 02:13:56;;;;;;;68.72;29.63;;;;;;;6.60;100.00;101519.75;5089515;28;20473;-59
2023/02/22 02:16:23;;;;;;;65.28;30.08;;;;;;;6.43;100.00;101512.88;5087405;28;20052;-61
2023/02/22 02:18:49;;;;;;;74.40;31.08;;;;;;;6.52;100.00;101513.69;5088222;28;20023;-60
2023/02/22 02:21:33;;;;;;;70.45;31.52;;;;;;;6.48;100.00;101512.84;5088287;28;20085;-61
2023/02/22 02:24:20;;;;;;;66.22;29.65;;;;;;;6.43;100.00;101512.00;5089180;28;20103;-62
2023/02/22 02:27:10;;;;;;;69.03;29.23;;;;;;;6.44;100.00;101511.09;5087812;28;20107;-59
2023/02/22 02:29:57;;;;;;;67.32;29.80;;;;;;;6.23;100.00;101512.97;5086486;28;20032;-59
2023/02/22 02:32:33;;;;;;;62.20;28.70;;;;;;;6.23;100.00;101512.13;5088191;28;20075;-60
2023/02/22 02:35:17;;;;;;;66.38;30.13;;;;;;;6.32;100.00;101506.81;5088700;28;20047;-60
2023/02/22 02:37:45;;;;;;;70.85;30.35;;;;;;;6.30;100.00;101504.19;5087454;28;20143;-59
2023/02/22 02:40:25;;;;;;;66.22;28.83;;;;;;;6.20;100.00;101502.50;5088301;28;20172;-59
2023/02/22 02:43:05;;;;;;;70.82;30.70;;;;;;;6.17;100.00;101498.16;5087105;28;20032;-59
2023/02/22 02:45:48;;;;;;;64.05;28.10;;;;;;;6.15;100.00;101499.06;5086996;28;20024;-56
2023/02/22 02:48:16;;;;;;;72.38;29.42;;;;;;;6.05;100.00;101493.88;5086239;28;20032;-61
2023/02/22 02:50:45;;;;;;;71.13;31.83;;;;;;;6.10;100.00;101488.63;5087023;28;20036;-59
2023/02/22 02:53:13;;;;;;;67.50;29.92;;;;;;;6.18;100.00;101486.81;5086289;28;20043;-58
2023/02/22 02:55:38;;;;;;;72.20;30.92;;;;;;;6.01;100.00;101473.78;5087786;28;20485;-57
2023/02/22 02:58:05;;;;;;;73.22;30.90;;;;;;;6.17;100.00;101468.53;5087049;28;20028;-60
2023/02/22 03:00:38;;;;;;;60.75;30.02;;;;;;;6.26;100.00;101465.84;5088077;28;20504;-60
2023/02/22 03:03:26;;;;;;;65.78;30.90;;;;;;;6.17;100.00;101456.28;5086392;28;20028;-57
2023/02/22 03:06:34;;;;;;;70.00;29.73;;;;;;;6.16;100.00;101451.94;5085139;28;20490;-60
2023/02/22 03:09:18;;;;;;;70.57;29.98;;;;;;;6.10;100.00;101453.72;5087378;28;20103;-59
2023/02/22 03:12:07;;;;;;;65.78;30.15;;;;;;;6.10;100.00;101453.72;5085953;28;20016;-60
2023/02/22 03:15:02;;;;;;;69.50;30.33;;;;;;;5.99;100.00;101449.38;5086510;28;20024;-59
2023/02/22 03:17:35;;;;;;;72.57;31.42;;;;;;;5.89;100.00;101450.28;5082448;28;20456;-61
2023/02/22 03:20:18;;;;;;;70.65;31.65;;;;;;;5.83;100.00;101445.97;5087709;28;20520;-60
2023/02/22 03:22:52;;;;;;;73.72;31.63;;;;;;;5.84;100.00;101444.22;5086340;28;20024;-57
2023/02/22 03:25:22;;;;;;;75.55;32.33;;;;;;;5.88;100.00;101438.09;5087198;28;20046;-60
2023/02/22 03:27:52;;;;;;;76.32;34.65;;;;;;;5.84;100.00;101437.22;5088313;28;20473;-60
2023/02/22 03:30:17;;;;;;;;;;;;;;;5.84;100.00;101432.00;5068260;28;20035;-59
2023/02/22 03:32:43;;;;;;;;;;;;;;;5.75;100.00;101430.31;5067884;28;19916;-61
2023/02/22 03:35:09;;;;;;;;;;;;;;;5.66;100.00;101438.22;5066784;28;19912;-57
2023/02/22 03:37:36;;;;;;;;;;;;;;;5.82;100.00;101418.09;5067586;28;19982;-60
2023/02/22 03:40:06;;;;;;;;;;;;;;;5.82;100.00;101418.94;5076286;28;20018;-60
2023/02/22 03:42:32;;;;;;;;;;;;;;;5.87;100.00;101418.06;5087256;28;19916;-58
2023/02/22 03:44:59;;;;;;;;;;;;;;;5.79;100.00;101418.09;5087198;28;19915;-61
2023/02/22 03:47:29;;;;;;;;;;;;;;;5.69;100.00;101412.06;5087442;28;19956;-59
2023/02/22 03:49:59;;;;;;;;;;;;;;;5.59;100.00;101405.09;5087338;28;20349;-62
2023/02/22 03:52:24;;;;;;;;;;;;;;;5.65;100.00;101399.84;5086079;28;19995;-60
2023/02/22 03:54:52;;;;;;;;;;;;;;;5.73;100.00;101398.06;5088202;28;20010;-58
2023/02/22 03:57:27;;;;;;;;;;;;;;;5.80;100.00;101389.31;5087287;28;19908;-60
2023/02/22 03:59:53;;;;;;;;;;;;;;;5.78;100.00;101385.84;5086774;28;20011;-58
2023/02/22 04:02:18;;;;;;;;;;;;;;;5.76;100.00;101377.16;5086986;28;20003;-59
2023/02/22 04:04:44;;;;;;;;;;;;;;;5.66;100.00;101378.06;5088297;28;19919;-60
2023/02/22 04:07:09;;;;;;;;;;;;;;;5.69;100.00;101376.28;5087536;28;19939;-61
2023/02/22 04:09:35;;;;;;;;;;;;;;;5.80;100.00;101373.63;5087007;28;19962;-59
2023/02/22 04:12:00;;;;;;;;;;;;;;;5.87;100.00;101374.44;5086885;28;20044;-61
2023/02/22 04:14:25;;;;;;;;;;;;;;;5.78;100.00;101359.69;5087877;28;19944;-60
2023/02/22 04:16:50;;;;;;;;;;;;;;;5.95;100.00;101366.56;5088676;28;19919;-60
2023/02/22 04:19:15;;;;;;;;;;;;;;;5.91;100.00;101364.84;5087921;28;19912;-59
2023/02/22 04:21:41;;;;;;;;;;;;;;;5.91;100.00;101362.25;5088634;28;19922;-61
2023/02/22 04:24:06;;;;;;;;;;;;;;;5.92;100.00;101353.50;5079510;28;20294;-56
2023/02/22 04:26:31;;;;;;;;;;;;;;;5.76;100.00;101360.56;5067310;28;19949;-60
2023/02/22 04:28:57;;;;;;;;;;;;;;;5.71;100.00;101357.09;5067447;28;20014;-60
2023/02/22 04:31:22;;;;;;;;;;;;;;;5.66;100.00;101354.53;5068362;28;19991;-62
2023/02/22 04:33:47;;;;;;;;;;;;;;;5.81;100.00;101359.66;5067746;28;20011;-60
2023/02/22 04:36:14;;;;;;;;;;;;;;;5.69;100.00;101357.13;5083264;28;19985;-60
2023/02/22 04:38:40;;;;;;;;;;;;;;;5.77;100.00;101346.63;5081159;28;19917;-61
2023/02/22 04:41:05;;;;;;;;;;;;;;;5.89;100.00;101343.94;5076776;28;19961;-61
2023/02/22 04:43:30;;;;;;;;;;;;;;;5.80;100.00;101346.59;5087029;28;19958;-60
2023/02/22 04:45:55;;;;;;;;;;;;;;;5.75;100.00;101344.00;5088188;28;19908;-58
2023/02/22 04:48:20;;;;;;;;;;;;;;;5.76;100.00;101351.00;5091513;28;19916;-61
2023/02/22 04:50:46;;;;;;;;;;;;;;;5.73;100.00;101340.53;5091839;28;19965;-60
2023/02/22 04:53:11;;;;;;;;;;;;;;;5.73;100.00;101332.69;5092766;28;19930;-60
2023/02/22 04:55:37;;;;;;;;;;;;;;;5.81;100.00;101327.44;5092247;28;19912;-60
2023/02/22 04:58:02;;;;;;;;;;;;;;;5.87;100.00;101334.38;5090310;28;19915;-61
2023/02/22 05:00:27;;;;;;;;;;;;;;;5.74;100.00;101331.81;5092829;28;20377;-59
2023/02/22 05:02:52;;;;;;;;;;;;;;;5.85;100.00;101323.91;5089520;28;19953;-59
2023/02/22 05:05:20;;;;;;;;;;;;;;;5.82;100.00;101327.41;5091950;28;19960;-60
2023/02/22 05:07:45;;;;;;;;;;;;;;;5.67;100.00;101327.50;5090225;28;19923;-60
2023/02/22 05:10:10;;;;;;;;;;;;;;;5.82;100.00;101324.78;5091468;28;20357;-59
2023/02/22 05:12:36;;;;;;;;;;;;;;;5.71;100.00;101323.09;5090665;28;19912;-61
2023/02/22 05:15:01;;;;;;;;;;;;;;;5.79;100.00;101322.22;5091530;28;19972;-62
2023/02/22 05:17:26;;;;;;;;;;;;;;;5.89;100.00;101319.50;5092142;28;19912;-62
2023/02/22 05:19:52;;;;;;;;;;;;;;;5.95;100.00;101322.09;5086998;28;19913;-61
2023/02/22 05:22:17;;;;;;;;;;;;;;;5.82;100.00;101324.78;5082503;28;19919;-60
2023/02/22 05:24:42;;;;;;;;;;;;;;;5.70;100.00;101319.66;5088658;28;20354;-61
2023/02/22 05:27:08;;;;;;;;;;;;;;;5.75;100.00;101323.09;5090284;28;20536;-61
2023/02/22 05:29:33;;;;;;;;;;;;;;;5.92;100.00;101319.50;5090632;28;19919;-61
2023/02/22 05:31:58;;;;;;;;;;;;;;;5.79;100.00;101319.59;5090748;28;19943;-59
2023/02/22 05:34:23;;;;;;;;;;;;;;;5.84;100.00;101306.47;5090529;28;20455;-60
2023/02/22 05:36:49;;;;;;;;;;;;;;;5.97;100.00;101298.53;5087444;28;20347;-59
2023/02/22 05:39:15;;;;;;;;;;;;;;;5.88;100.00;101302.97;5080966;28;19912;-59
2023/02/22 05:41:40;;;;;;;;;;;;;;;5.80;100.00;101312.59;5086484;28;19913;-60
2023/02/22 05:44:05;;;;;;;;;;;;;;;5.85;100.00;101307.34;5083511;28;19916;-61
2023/02/22 05:46:30;;;;;;;;;;;;;;;5.85;100.00;101308.22;5089698;28;20326;-60
2023/02/22 05:48:55;;;;;;;;;;;;;;;5.93;100.00;101302.94;5082730;28;19955;-62
2023/02/22 05:51:21;;;;;;;;;;;;;;;5.98;100.00;101297.66;5076939;28;19966;-60
2023/02/22 05:53:47;;;;;;;;;;;;;;;5.69;100.00;101299.63;5069111;28;19923;-61
2023/02/22 05:56:12;;;;;;;;;;;;;;;5.70;100.00;101293.50;5068549;28;19912;-61
2023/02/22 05:58:37;;;;;;;;;;;;;;;5.89;100.00;101278.53;5068597;28;20374;-59
2023/02/22 06:01:02;;;;;;;;;;;;;;;5.86;100.00;101278.56;5069762;28;19917;-60
2023/02/22 06:03:27;;;;;;;;;;;;;;;5.86;100.00;101275.06;5069902;28;19920;-60
2023/02/22 06:05:53;;;;;;;;;;;;;;;5.81;100.00;101286.44;5069703;28;19913;-59
2023/02/22 06:08:18;;;;;;;;;;;;;;;5.85;100.00;101289.03;5070617;28;20065;-60
2023/02/22 06:10:43;;;;;;;;;;;;;;;6.00;100.00;101274.97;5069434;28;20014;-60
2023/02/22 06:13:08;;;;;;;;;;;;;;;5.93;100.00;101263.72;5083672;28;20002;-58
2023/02/22 06:15:34;;;;;;;;;;;;;;;6.03;100.00;101262.75;5089547;28;20047;-61
2023/02/22 06:17:59;;;;;;;;;;;;;;;6.03;100.00;101259.25;5089562;28;19919;-60
2023/02/22 06:20:25;;;;;;;;;;;;;;;5.84;100.00;101264.63;5088713;28;19923;-60
2023/02/22 06:22:51;;;;;;;;;;;;;;;5.86;100.00;101260.25;5091221;28;19916;-60
2023/02/22 06:25:17;;;;;;;;;;;;;;;5.85;100.00;101260.25;5092179;28;19912;-58
2023/02/22 06:27:42;;;;;;;;;;;;;;;5.86;100.00;101256.75;5090213;28;19938;-61
2023/02/22 06:30:08;;;;;;;;;;;;;;;5.82;100.00;101251.56;5091584;28;20420;-61
2023/02/22 06:32:34;;;;;;;;;;;;;;;5.92;100.00;101248.88;5079135;28;19919;-59
2023/02/22 06:34:59;;;;;;;;;;;;;;;5.91;100.00;101250.63;5090456;28;19916;-59
2023/02/22 06:37:24;;;;;;;;;;;;;;;5.72;100.00;101255.13;5090892;28;20101;-62
2023/02/22 06:39:49;;;;;;;;;;;;;;;5.75;100.00;101260.31;5089593;28;19919;-60
2023/02/22 06:42:14;;;;;;;;;;;;;;;5.89;100.00;101256.75;5090042;28;19913;-58
2023/02/22 06:44:40;;;;;;;;;;;;;;;6.00;100.00;101262.78;5088944;28;19931;-59
2023/02/22 06:47:05;;;;;;;;;;;;;;;6.11;100.00;101264.47;5078795;28;19913;-59
2023/02/22 06:49:30;;;;;;;;;;;;;;;6.03;100.00;101265.38;5078197;28;19911;-59
2023/02/22 06:51:55;;;;;;;;;;;;;;;5.76;100.00;101282.13;5075868;28;19913;-59
2023/02/22 06:54:21;;;;;;;;;;;;;;;5.84;100.00;101279.47;5070790;28;20036;-61
2023/02/22 06:56:46;;;;;;;;;;;;;;;5.90;100.00;101279.41;5083556;28;20389;-58
2023/02/22 06:59:11;;;;;;;;;;;;;;;6.01;100.00;101277.59;5079385;28;19922;-63
2023/02/22 07:01:39;;;;;;;;;;;;;;;6.07;100.00;101255.75;5086592;28;19919;-60
2023/02/22 07:04:04;;;;;;;;;;;;;;;6.02;100.00;101258.38;5087070;28;19977;-60
2023/02/22 07:06:29;;;;;;;;;;;;;;;6.16;100.00;101249.59;5086349;28;20423;-61
2023/02/22 07:08:55;;;;;;;;;;;;;;;5.76;100.00;101272.53;5085288;28;20425;-58
2023/02/22 07:11:20;;;;;;;;;;;;;;;5.84;100.00;101276.84;5086712;28;20482;-60
2023/02/22 07:13:45;;;;;;;;;;;;;;;6.09;100.00;101272.34;5082683;28;20293;-63
2023/02/22 07:16:10;;;;;;;;;;;;;;;6.10;100.00;101260.97;5074133;28;20663;-61
2023/02/22 07:18:36;;;;;;;;;;;;;;;6.07;100.00;101274.97;5087386;28;20411;-59
2023/02/22 07:21:01;;;;;;;;;;;;;;;5.96;100.00;101284.59;5088180;28;19998;-60
2023/02/22 07:23:26;;;;;;;;;;;;;;;6.17;100.00;101285.34;5086664;28;19916;-61
2023/02/22 07:25:51;;;;;;;;;;;;;;;6.15;100.00;101289.72;5087275;28;19923;-62
2023/02/22 07:28:17;;;;;;;;;;;;;;;6.17;100.00;101278.34;5087328;28;19912;-58
2023/02/22 07:30:42;;;;;;;;;;;;;;;6.17;100.00;101287.97;5086669;28;19935;-57
2023/02/22 07:33:09;;;;;;;;;;;;;;;6.21;100.00;101279.22;5088112;28;19981;-59
2023/02/22 07:35:38;;;;;;;;;;;;;;;6.24;100.00;101271.34;5086450;28;20011;-60
2023/02/22 07:38:05;;;;;;;;;;;;;;;6.28;100.00;101273.03;5088716;28;19912;-61
2023/02/22 07:40:30;;;;;;;;;;;;;;;6.27;100.00;101284.41;5085775;28;19916;-61
2023/02/22 07:43:02;;;;;;;;;;;;;;;6.39;100.00;101279.91;5080941;28;19916;-60
2023/02/22 07:45:31;;;;;;;;;;;;;;;6.36;100.00;101280.81;5076879;28;19913;-60
2023/02/22 07:47:57;;;;;;;;;;;;;;;6.39;100.00;101282.53;5089409;28;19912;-63
2023/02/22 07:50:22;;;;;;;;;;;;;;;6.29;100.00;101282.63;5088963;28;19912;-63
2023/02/22 07:52:49;;;;;;;;;;;;;;;6.35;100.00;101296.53;5090120;28;19918;-60
2023/02/22 07:55:15;;;;;;;;;;;;;;;6.39;100.00;101288.66;5088660;28;19998;-60
2023/02/22 07:57:41;;;;;;;;;;;;;;;6.27;100.00;101294.88;5086876;28;22143;-60
2023/02/22 08:00:07;;;;;;;;;;;;;;;6.26;100.00;101293.09;5090172;28;19911;-58
2023/02/22 08:02:32;;;;;;;;;;;;;;;6.40;100.00;101290.38;5075617;28;20546;-55
2023/02/22 08:04:57;;;;;;;;;;;;;;;6.36;100.00;101279.94;5079015;28;19916;-61
2023/02/22 08:07:23;;;;;;;;;;;;;;;6.42;100.00;101282.50;5087447;28;20053;-60
2023/02/22 08:09:48;;;;;;;;;;;;;;;6.46;100.00;101292.06;5078701;28;19947;-59
2023/02/22 08:12:13;;;;;;;;;;;;;;;6.41;100.00;101275.56;5080160;28;19916;-60
2023/02/22 08:14:38;;;;;;;;;;;;;;;6.59;100.00;101279.72;5086711;28;19912;-59
2023/02/22 08:17:04;;;;;;;;;;;;;;;6.66;100.00;101275.28;5086878;28;19922;-61
2023/02/22 08:19:29;;;;;;;;;;;;;;;6.63;100.00;101280.56;5084110;28;19928;-61
2023/02/22 08:21:54;;;;;;;;;;;;;;;6.53;100.00;101264.94;5083178;28;19916;-61
2023/02/22 08:24:19;;;;;;;;;;;;;;;6.62;100.00;101257.88;5076786;28;20023;-61
2023/02/22 08:26:45;;;;;;;;;;;;;;;6.82;100.00;101255.91;5087415;28;19916;-60
2023/02/22 08:29:10;;;;;;;;;;;;;;;6.86;100.00;101256.72;5076955;28;19924;-60
2023/02/22 08:31:35;;;;;;;;;;;;;;;6.90;100.00;101244.47;5080113;28;19962;-61
2023/02/22 08:34:01;;;;;;;;;;;;;;;6.97;100.00;101240.00;5085665;28;19916;-59
2023/02/22 08:36:28;;;;;;;;;;;;;;;7.00;100.00;101238.22;5090844;28;19988;-58
2023/02/22 08:38:53;;;;;;;;;;;;;;;6.68;100.00;101250.81;5087188;28;19924;-59
2023/02/22 08:41:18;;;;;;;;;;;;;;;6.77;100.00;101246.38;5082180;28;19912;-62
2023/02/22 08:43:44;;;;;;;;;;;;;;;6.80;100.00;101241.94;5089810;28;19923;-60
2023/02/22 08:46:09;;;;;;;;;;;;;;;6.69;100.00;101241.22;5088387;28;19916;-57
2023/02/22 08:48:34;;;;;;;;;;;;;;;6.69;100.00;101246.47;5079921;28;20385;-57
2023/02/22 08:50:59;;;;;;;;;;;;;;;6.71;100.00;101244.66;5081802;28;19912;-60
2023/02/22 08:53:25;;;;;;;;;;;;;;;7.17;100.00;101239.78;5083862;28;19944;-60
2023/02/22 08:55:50;;;;;;;;;;;;;;;7.14;100.00;101240.69;5082828;28;20557;-60
2023/02/22 08:58:15;;;;;;;;;;;;;;;7.05;100.00;101233.78;5080395;28;19938;-59
2023/02/22 09:00:41;;;;;;;;;;;;;;;7.29;100.00;101226.47;5085716;28;19919;-59
2023/02/22 09:03:07;;;;;;;;;;;;;;;7.41;100.00;101212.31;5090229;28;19923;-60
2023/02/22 09:05:33;;;;;;;;;;;;;;;7.28;100.00;101206.41;5089502;28;19923;-60
2023/02/22 09:07:58;;;;;;;;;;;;;;;7.25;100.00;101211.69;5085825;28;20274;-60
2023/02/22 09:10:24;;;;;;;;;;;;;;;7.61;100.00;101212.94;5077902;28;19912;-63
2023/02/22 09:12:50;;;;;;;;;;;;;;;7.64;100.00;101212.88;5084792;28;20290;-61
2023/02/22 09:15:16;;;;;;;;;;;;;;;7.77;100.00;101213.56;5079752;28;19927;-59
2023/02/22 09:17:41;;;;;;;;;;;;;;;8.14;100.00;101206.81;5079164;28;19931;-57
2023/02/22 09:20:07;;;;;;;;;;;;;;;7.99;100.00;101208.81;5080355;28;19919;-60
2023/02/22 09:22:32;;;;;;;;;;;;;;;7.96;100.00;101199.25;5079119;28;19916;-61
2023/02/22 09:24:57;;;;;;;;;;;;;;;7.68;100.00;101196.22;5088003;28;19954;-58
2023/02/22 09:27:22;;;;;;;;;;;;;;;7.50;100.00;101189.50;5077901;28;19999;-61
2023/02/22 09:29:48;;;;;;;;;;;;;;;7.63;100.00;101198.91;5086404;28;20325;-60
2023/02/22 09:32:16;;;;;;;;;;;;;;;7.88;100.00;101195.00;5083687;28;19951;-58
2023/02/22 09:34:44;;;;;;;;;;;;;;;8.03;100.00;101209.63;5071096;28;19924;-58
2023/02/22 09:37:09;;;;;;;;;;;;;;;7.94;100.00;101222.03;5077163;28;19999;-58
2023/02/22 09:39:36;;;;;;;;;;;;;;;8.19;100.00;101220.75;5085916;28;20465;-60
2023/02/22 09:42:20;;;;;;;;;;;;;;;8.30;100.00;101224.03;5085858;28;19912;-62
2023/02/22 09:44:54;;;;;;;;;;;;;;;8.13;100.00;101221.69;5069433;28;20368;-59
2023/02/22 09:47:31;;;;;;;;;;;;;;;8.29;100.00;101240.69;5073138;28;20264;-60
2023/02/22 09:50:03;;;;;;;;;;;;;;;8.28;100.00;101252.06;5078594;28;19958;-56
2023/02/22 09:52:29;;;;;;;;;;;;;;;8.32;100.00;101248.50;5072023;28;19912;-60
2023/02/22 09:55:14;;;;;;;;;;;;;;;8.53;100.00;101246.38;5087401;28;20031;-56
2023/02/22 09:57:40;;;;;;;;;;;;;;;8.45;100.00;101259.66;5088866;28;20376;-60
2023/02/22 10:00:13;;;;;;;;;;;;;;;8.62;100.00;101249.75;5088964;28;19916;-60
2023/02/22 10:02:42;;;;;;;;;;;;;;;8.57;100.00;101255.97;5087109;28;19919;-59
2023/02/22 10:05:10;;;;;;;;;;;;;;;8.62;100.00;101241.88;5077219;28;19919;-59
2023/02/22 10:07:41;;;;;;;;;;;;;;;8.50;100.00;101233.31;5072844;28;20598;-61
2023/02/22 10:10:12;;;;;;;;;;;;;;;8.44;100.00;101217.66;5078315;28;19923;-61
2023/02/22 10:12:43;;;;;;;;;;;;;;;8.51;100.00;101200.88;5068823;28;19923;-58
2023/02/22 10:15:17;;;;;;;;;;;;;;;8.56;100.00;101203.44;5070603;28;19970;-59
2023/02/22 10:18:02;;;;;;;;;;;;;;;8.65;100.00;101191.91;5074181;28;19928;-60
2023/02/22 10:20:37;;;;;;;;;;;;;;;8.10;100.00;101219.16;5087090;28;20412;-55
2023/02/22 10:23:06;;;;;;;;;;;;;;;8.26;100.00;101232.84;5087089;28;20282;-60
2023/02/22 10:25:33;;;;;;;;;;;;;;;8.49;100.00;101223.66;5087490;28;20006;-61
2023/02/22 10:28:08;;;;;;;;;;;;;;;8.48;100.00;101221.94;5088484;28;19912;-60
2023/02/22 10:30:45;;;;;;;;;;;;;;;8.83;100.00;101227.44;5075693;28;19999;-58
2023/02/22 10:33:10;;;;;;;;;;;;;;;9.04;100.00;101228.78;5068052;28;19917;-60
2023/02/22 10:35:36;;;;;;;;;;;;;;;9.19;100.00;101237.22;5075875;28;19969;-60
2023/02/22 10:38:06;;;;;;;;;;;;;;;8.98;100.00;101237.63;5085299;28;19914;-58
2023/02/22 10:40:31;;;;;;;;;;;;;;;9.19;100.00;101238.09;5082463;28;20712;-58
2023/02/22 10:43:05;;;;;;;;;;;;;;;9.53;100.00;101233.84;5083615;28;19920;-59
2023/02/22 10:45:31;;;;;;;;;;;;;;;9.33;100.00;101227.25;5087395;28;19912;-61
2023/02/22 10:47:58;;;;;;;;;;;;;;;9.55;100.00;101231.16;5089376;28;19919;-59
2023/02/22 10:50:24;;;;;;;;;;;;;;;9.42;100.00;101220.06;5080532;28;19920;-59
2023/02/22 10:52:49;;;;;;;;;;;;;;;9.52;100.00;101224.22;5070358;28;19912;-60
2023/02/22 10:55:14;;;;;;;;;;;;;;;9.38;100.00;101214.00;5072439;28;19916;-59
2023/02/22 10:57:41;;;;;;;;;;;;;;;9.72;100.00;101207.94;5067792;28;19912;-61
2023/02/22 11:00:13;;;;;;;;;;;;;;;9.96;100.00;101207.34;5067308;28;19990;-61
2023/02/22 11:02:39;;;;;;;;;;;;;;;9.77;100.00;101213.09;5087426;28;19936;-58
2023/02/22 11:05:04;;;;;;;;;;;;;;;9.99;100.00;101210.78;5077196;28;20275;-56
2023/02/22 11:07:30;;;;;;;;;;;;;;;10.03;100.00;101200.19;5079144;28;19912;-59
2023/02/22 11:09:55;;;;;;;;;;;;;;;10.05;100.00;101188.69;5076235;28;19921;-60
2023/02/22 11:12:29;;;;;;;;;;;;;;;10.09;100.00;101184.22;5074969;28;19935;-60
2023/02/22 11:14:54;;;;;;;;;;;;;;;9.97;100.00;101175.72;5077406;28;20086;-61
2023/02/22 11:17:27;;;;;;;;;;;;;;;10.00;100.00;101185.34;5088421;28;19999;-59
2023/02/22 11:19:53;;;;;;;;;;;;;;;10.28;100.00;101176.69;5086639;28;19916;-60
2023/02/22 11:22:20;;;;;;;;;;;;;;;10.48;100.00;101172.69;5076229;28;19922;-61
2023/02/22 11:24:46;;;;;;;;;;;;;;;10.38;100.00;101182.56;5078326;28;19935;-60
2023/02/22 11:27:19;;;;;;;;;;;;;;;10.35;100.00;101174.75;5080403;28;19967;-60
2023/02/22 11:29:49;;;;;;;;;;;;;;;10.42;100.00;101176.28;5082578;28;20006;-60
2023/02/22 11:32:19;;;;;;;;;;;;;;;10.61;100.00;101176.69;5075873;28;20007;-59
2023/02/22 11:34:45;;;;;;;;;;;;;;;10.45;100.00;101180.63;5073517;28;19912;-58
2023/02/22 11:37:18;;;;;;;;;;;;;;;10.46;100.00;101174.47;5076658;28;19917;-60
2023/02/22 11:39:43;;;;;;;;;;;;;;;10.57;100.00;101175.03;5074254;28;19999;-60
2023/02/22 11:42:21;;;;;;;;;;;;;;;10.60;100.00;101174.09;5079682;28;19982;-60
2023/02/22 11:44:46;;;;;;;;;;;;;;;10.79;100.00;101168.28;5077004;28;20402;-60
2023/02/22 11:47:12;;;;;;;;;;;;;;;10.57;100.00;101168.91;5076134;28;19966;-57
2023/02/22 11:49:38;;;;;;;;;;;;;;;10.35;100.00;101158.94;5084567;28;19920;-59
2023/02/22 11:52:12;;;;;;;;;;;;;;;10.14;100.00;101155.16;5084974;28;19964;-62
2023/02/22 11:54:58;;;;;;;;;;;;;;;10.34;100.00;101155.47;5080046;28;19938;-61
2023/02/22 11:57:26;;;;;;;;;;;;;;;10.38;100.00;101161.50;5084380;28;20374;-61
2023/02/22 12:00:00;;;;;;;;;;;;;;;10.48;100.00;101151.59;5086176;28;19912;-59
2023/02/22 12:02:25;;;;;;;;;;;;;;;10.35;100.00;101149.28;5085897;28;20436;-60
2023/02/22 12:05:00;;;;;;;;;;;;;;;10.38;100.00;101147.47;5086492;28;19912;-61
2023/02/22 12:07:25;;;;;;;;;;;;;;;10.49;100.00;101146.28;5085986;28;20485;-57
2023/02/22 12:09:54;;;;;;;;;;;;;;;10.85;100.00;101147.91;5085272;28;19999;-58
2023/02/22 12:12:23;;;;;;;;;;;;;;;11.03;100.00;101147.38;5085108;28;19919;-58